Embry Hills, Georgia
Current Conditions -  °F | °C
As of 6:53 PM on Saturday 20 Dec 2014 (Local Time) from KFTY Reporting Station
Overcast Overcast  
Wind Chill: 50°   Ceiling: 1500
Heat Index: 50°   Visibility: 9mi
Dew Point: 45°   Wind: 3mph
Humidity: 83%   Direction: 350°N
Pressure: 30.18"   Gusts: NA
Location:  33.7629°N, 84.4225°W
Report Text: KFTY 202353Z 35003KT 9SM OVC015 10/07 A3018 RMK AO2 SLP222 T01000072 10106 20089 53009
Loading
Personal Weather Stations






























Interactive Weather Map New forecast layout! Learn more

10-Day Weather Forecast

Advertisements
Track Severe Weather on mobile